sensor_id;sensor_type;location;lat;lon;timestamp;P1;durP1;ratioP1;P2;durP2;ratioP2
41689;SDS011;27372;42.658;23.256;2023-09-19T00:00:16;7.05;;;5.70;;
41689;SDS011;27372;42.658;23.256;2023-09-19T00:02:44;10.50;;;6.10;;
41689;SDS011;27372;42.658;23.256;2023-09-19T00:05:12;6.83;;;5.40;;
41689;SDS011;27372;42.658;23.256;2023-09-19T00:07:37;8.07;;;6.20;;
41689;SDS011;27372;42.658;23.256;2023-09-19T00:10:03;7.13;;;6.10;;
41689;SDS011;27372;42.658;23.256;2023-09-19T00:12:29;7.93;;;6.28;;
41689;SDS011;27372;42.658;23.256;2023-09-19T00:14:55;9.55;;;6.70;;
41689;SDS011;27372;42.658;23.256;2023-09-19T00:17:21;10.85;;;6.60;;
41689;SDS011;27372;42.658;23.256;2023-09-19T00:19:47;9.32;;;6.55;;
41689;SDS011;27372;42.658;23.256;2023-09-19T00:22:16;8.38;;;6.25;;
41689;SDS011;27372;42.658;23.256;2023-09-19T00:24:43;9.38;;;6.50;;
41689;SDS011;27372;42.658;23.256;2023-09-19T00:27:09;7.53;;;6.35;;
41689;SDS011;27372;42.658;23.256;2023-09-19T00:29:34;9.75;;;6.88;;
41689;SDS011;27372;42.658;23.256;2023-09-19T00:32:00;9.85;;;6.40;;
41689;SDS011;27372;42.658;23.256;2023-09-19T00:34:28;15.48;;;6.88;;
41689;SDS011;27372;42.658;23.256;2023-09-19T00:36:54;11.90;;;7.00;;
41689;SDS011;27372;42.658;23.256;2023-09-19T00:39:20;9.10;;;6.57;;
41689;SDS011;27372;42.658;23.256;2023-09-19T00:41:47;8.48;;;6.60;;
41689;SDS011;27372;42.658;23.256;2023-09-19T00:44:12;9.52;;;6.50;;
41689;SDS011;27372;42.658;23.256;2023-09-19T00:46:38;9.95;;;6.72;;
41689;SDS011;27372;42.658;23.256;2023-09-19T00:49:04;8.43;;;6.53;;
41689;SDS011;27372;42.658;23.256;2023-09-19T00:51:32;8.57;;;6.80;;
41689;SDS011;27372;42.658;23.256;2023-09-19T00:54:00;10.65;;;6.68;;
41689;SDS011;27372;42.658;23.256;2023-09-19T00:56:27;9.18;;;6.80;;
41689;SDS011;27372;42.658;23.256;2023-09-19T00:58:53;10.25;;;6.85;;
41689;SDS011;27372;42.658;23.256;2023-09-19T01:01:18;10.48;;;6.43;;
41689;SDS011;27372;42.658;23.256;2023-09-19T01:03:45;9.77;;;6.78;;
41689;SDS011;27372;42.658;23.256;2023-09-19T01:06:11;9.23;;;6.25;;
41689;SDS011;27372;42.658;23.256;2023-09-19T01:08:37;8.77;;;6.68;;
41689;SDS011;27372;42.658;23.256;2023-09-19T01:13:54;8.23;;;6.35;;
41689;SDS011;27372;42.658;23.256;2023-09-19T01:16:28;9.73;;;6.95;;
41689;SDS011;27372;42.658;23.256;2023-09-19T01:19:13;11.70;;;6.82;;
41689;SDS011;27372;42.658;23.256;2023-09-19T01:27:03;9.32;;;6.80;;
41689;SDS011;27372;42.658;23.256;2023-09-19T01:29:46;8.63;;;6.63;;
41689;SDS011;27372;42.658;23.256;2023-09-19T01:32:15;9.25;;;6.45;;
41689;SDS011;27372;42.658;23.256;2023-09-19T01:34:46;8.98;;;5.95;;
41689;SDS011;27372;42.658;23.256;2023-09-19T01:37:24;12.80;;;6.63;;
41689;SDS011;27372;42.658;23.256;2023-09-19T01:40:00;9.30;;;6.18;;
41689;SDS011;27372;42.658;23.256;2023-09-19T01:51:07;11.88;;;6.50;;
41689;SDS011;27372;42.658;23.256;2023-09-19T01:53:36;10.50;;;7.10;;
41689;SDS011;27372;42.658;23.256;2023-09-19T01:56:31;12.60;;;7.20;;
41689;SDS011;27372;42.658;23.256;2023-09-19T01:59:02;9.80;;;6.80;;
41689;SDS011;27372;42.658;23.256;2023-09-19T02:01:33;11.60;;;7.30;;
41689;SDS011;27372;42.658;23.256;2023-09-19T02:04:02;11.20;;;6.40;;
41689;SDS011;27372;42.658;23.256;2023-09-19T02:06:27;8.85;;;6.68;;
41689;SDS011;27372;42.658;23.256;2023-09-19T02:08:53;8.70;;;6.03;;
41689;SDS011;27372;42.658;23.256;2023-09-19T02:11:19;9.15;;;6.68;;
41689;SDS011;27372;42.658;23.256;2023-09-19T02:13:45;8.85;;;6.82;;
41689;SDS011;27372;42.658;23.256;2023-09-19T02:16:10;12.27;;;6.97;;
41689;SDS011;27372;42.658;23.256;2023-09-19T02:18:37;8.23;;;6.93;;
41689;SDS011;27372;42.658;23.256;2023-09-19T02:21:04;11.68;;;6.47;;
41689;SDS011;27372;42.658;23.256;2023-09-19T02:23:31;9.80;;;6.80;;
41689;SDS011;27372;42.658;23.256;2023-09-19T02:25:58;9.07;;;6.90;;
41689;SDS011;27372;42.658;23.256;2023-09-19T02:28:28;8.63;;;7.00;;
41689;SDS011;27372;42.658;23.256;2023-09-19T02:30:55;8.60;;;6.50;;
41689;SDS011;27372;42.658;23.256;2023-09-19T02:33:21;10.25;;;6.70;;
41689;SDS011;27372;42.658;23.256;2023-09-19T02:35:47;9.27;;;6.45;;
41689;SDS011;27372;42.658;23.256;2023-09-19T02:38:12;9.05;;;6.43;;
41689;SDS011;27372;42.658;23.256;2023-09-19T02:40:39;7.45;;;6.25;;
41689;SDS011;27372;42.658;23.256;2023-09-19T02:43:05;12.68;;;7.18;;
41689;SDS011;27372;42.658;23.256;2023-09-19T02:45:31;10.63;;;7.40;;
41689;SDS011;27372;42.658;23.256;2023-09-19T02:47:57;8.77;;;6.50;;
41689;SDS011;27372;42.658;23.256;2023-09-19T02:50:23;9.65;;;6.10;;
41689;SDS011;27372;42.658;23.256;2023-09-19T02:52:49;11.15;;;6.75;;
41689;SDS011;27372;42.658;23.256;2023-09-19T02:55:15;8.57;;;6.63;;
41689;SDS011;27372;42.658;23.256;2023-09-19T02:57:49;9.55;;;7.05;;
41689;SDS011;27372;42.658;23.256;2023-09-19T03:00:16;10.50;;;6.40;;
41689;SDS011;27372;42.658;23.256;2023-09-19T03:02:46;12.68;;;6.95;;
41689;SDS011;27372;42.658;23.256;2023-09-19T03:05:12;10.65;;;7.15;;
41689;SDS011;27372;42.658;23.256;2023-09-19T03:07:37;9.75;;;7.07;;
41689;SDS011;27372;42.658;23.256;2023-09-19T03:10:05;10.68;;;7.10;;
41689;SDS011;27372;42.658;23.256;2023-09-19T03:12:32;9.90;;;7.13;;
41689;SDS011;27372;42.658;23.256;2023-09-19T03:14:58;8.45;;;6.63;;
41689;SDS011;27372;42.658;23.256;2023-09-19T03:17:24;9.07;;;7.07;;
41689;SDS011;27372;42.658;23.256;2023-09-19T03:19:50;9.93;;;7.15;;
41689;SDS011;27372;42.658;23.256;2023-09-19T03:22:15;11.57;;;7.65;;
41689;SDS011;27372;42.658;23.256;2023-09-19T03:24:42;9.55;;;7.10;;
41689;SDS011;27372;42.658;23.256;2023-09-19T03:27:09;10.50;;;6.97;;
41689;SDS011;27372;42.658;23.256;2023-09-19T03:29:35;11.05;;;7.05;;
41689;SDS011;27372;42.658;23.256;2023-09-19T03:32:01;8.63;;;6.95;;
41689;SDS011;27372;42.658;23.256;2023-09-19T03:34:26;12.30;;;7.00;;
41689;SDS011;27372;42.658;23.256;2023-09-19T03:36:52;10.95;;;7.50;;
41689;SDS011;27372;42.658;23.256;2023-09-19T03:39:17;10.13;;;6.80;;
41689;SDS011;27372;42.658;23.256;2023-09-19T03:41:43;8.82;;;6.68;;
41689;SDS011;27372;42.658;23.256;2023-09-19T03:44:10;9.10;;;7.03;;
41689;SDS011;27372;42.658;23.256;2023-09-19T03:46:35;8.45;;;6.60;;
41689;SDS011;27372;42.658;23.256;2023-09-19T03:49:01;9.65;;;6.97;;
41689;SDS011;27372;42.658;23.256;2023-09-19T03:51:26;8.65;;;6.82;;
41689;SDS011;27372;42.658;23.256;2023-09-19T03:53:52;8.82;;;7.10;;
41689;SDS011;27372;42.658;23.256;2023-09-19T03:56:17;8.50;;;6.82;;
41689;SDS011;27372;42.658;23.256;2023-09-19T03:58:43;8.93;;;7.22;;
41689;SDS011;27372;42.658;23.256;2023-09-19T04:01:08;10.80;;;7.00;;
41689;SDS011;27372;42.658;23.256;2023-09-19T04:03:33;13.38;;;7.45;;
41689;SDS011;27372;42.658;23.256;2023-09-19T04:06:15;11.93;;;6.95;;
41689;SDS011;27372;42.658;23.256;2023-09-19T04:08:41;9.02;;;6.78;;
41689;SDS011;27372;42.658;23.256;2023-09-19T04:11:07;10.05;;;7.30;;
41689;SDS011;27372;42.658;23.256;2023-09-19T04:13:33;9.63;;;7.30;;
41689;SDS011;27372;42.658;23.256;2023-09-19T04:15:58;10.93;;;7.10;;
41689;SDS011;27372;42.658;23.256;2023-09-19T04:18:24;10.07;;;7.25;;
41689;SDS011;27372;42.658;23.256;2023-09-19T04:20:50;11.60;;;7.43;;
41689;SDS011;27372;42.658;23.256;2023-09-19T04:23:16;10.48;;;7.68;;
41689;SDS011;27372;42.658;23.256;2023-09-19T04:25:42;12.20;;;7.65;;
41689;SDS011;27372;42.658;23.256;2023-09-19T04:28:08;16.92;;;8.13;;
41689;SDS011;27372;42.658;23.256;2023-09-19T04:30:36;14.20;;;7.55;;
41689;SDS011;27372;42.658;23.256;2023-09-19T04:33:07;13.65;;;8.27;;
41689;SDS011;27372;42.658;23.256;2023-09-19T04:35:33;13.95;;;7.10;;
41689;SDS011;27372;42.658;23.256;2023-09-19T04:38:00;14.80;;;7.60;;
41689;SDS011;27372;42.658;23.256;2023-09-19T04:40:25;13.57;;;7.13;;
41689;SDS011;27372;42.658;23.256;2023-09-19T04:42:55;15.20;;;7.55;;
41689;SDS011;27372;42.658;23.256;2023-09-19T04:45:24;15.32;;;8.13;;
41689;SDS011;27372;42.658;23.256;2023-09-19T04:47:54;10.75;;;7.72;;
41689;SDS011;27372;42.658;23.256;2023-09-19T04:50:21;11.48;;;7.22;;
41689;SDS011;27372;42.658;23.256;2023-09-19T04:52:51;11.63;;;7.57;;
41689;SDS011;27372;42.658;23.256;2023-09-19T04:55:19;13.45;;;8.25;;
41689;SDS011;27372;42.658;23.256;2023-09-19T04:57:46;16.58;;;7.90;;
41689;SDS011;27372;42.658;23.256;2023-09-19T05:00:21;14.20;;;7.38;;
41689;SDS011;27372;42.658;23.256;2023-09-19T05:02:49;13.27;;;7.00;;
41689;SDS011;27372;42.658;23.256;2023-09-19T05:05:16;18.00;;;6.95;;
41689;SDS011;27372;42.658;23.256;2023-09-19T05:07:43;14.95;;;8.02;;
41689;SDS011;27372;42.658;23.256;2023-09-19T05:10:10;13.60;;;7.13;;
41689;SDS011;27372;42.658;23.256;2023-09-19T05:12:36;14.57;;;8.13;;
41689;SDS011;27372;42.658;23.256;2023-09-19T05:15:05;12.90;;;8.00;;
41689;SDS011;27372;42.658;23.256;2023-09-19T05:17:35;11.90;;;7.07;;
41689;SDS011;27372;42.658;23.256;2023-09-19T05:20:01;19.40;;;8.48;;
41689;SDS011;27372;42.658;23.256;2023-09-19T05:22:43;15.68;;;8.48;;
41689;SDS011;27372;42.658;23.256;2023-09-19T05:25:11;14.07;;;8.88;;
41689;SDS011;27372;42.658;23.256;2023-09-19T05:27:41;12.60;;;7.88;;
41689;SDS011;27372;42.658;23.256;2023-09-19T05:30:07;14.35;;;7.95;;
41689;SDS011;27372;42.658;23.256;2023-09-19T05:32:34;15.77;;;8.30;;
41689;SDS011;27372;42.658;23.256;2023-09-19T05:34:59;11.93;;;8.23;;
41689;SDS011;27372;42.658;23.256;2023-09-19T05:37:25;18.25;;;8.50;;
41689;SDS011;27372;42.658;23.256;2023-09-19T05:39:51;15.68;;;8.10;;
41689;SDS011;27372;42.658;23.256;2023-09-19T05:42:18;14.52;;;8.05;;
41689;SDS011;27372;42.658;23.256;2023-09-19T05:44:43;14.95;;;8.93;;
41689;SDS011;27372;42.658;23.256;2023-09-19T05:47:08;12.63;;;7.68;;
41689;SDS011;27372;42.658;23.256;2023-09-19T05:49:37;20.42;;;7.28;;
41689;SDS011;27372;42.658;23.256;2023-09-19T05:52:06;19.85;;;7.50;;
41689;SDS011;27372;42.658;23.256;2023-09-19T05:54:32;13.98;;;6.93;;
41689;SDS011;27372;42.658;23.256;2023-09-19T05:56:59;19.42;;;6.45;;
41689;SDS011;27372;42.658;23.256;2023-09-19T05:59:25;19.75;;;6.03;;
41689;SDS011;27372;42.658;23.256;2023-09-19T06:01:50;13.55;;;7.03;;
41689;SDS011;27372;42.658;23.256;2023-09-19T06:04:17;15.63;;;7.28;;
41689;SDS011;27372;42.658;23.256;2023-09-19T06:06:44;10.18;;;6.05;;
41689;SDS011;27372;42.658;23.256;2023-09-19T06:09:10;14.25;;;7.75;;
41689;SDS011;27372;42.658;23.256;2023-09-19T06:11:35;14.55;;;7.75;;
41689;SDS011;27372;42.658;23.256;2023-09-19T06:14:03;14.35;;;7.78;;
41689;SDS011;27372;42.658;23.256;2023-09-19T06:16:29;15.95;;;8.32;;
41689;SDS011;27372;42.658;23.256;2023-09-19T06:18:55;13.68;;;7.78;;
41689;SDS011;27372;42.658;23.256;2023-09-19T06:21:23;9.30;;;8.00;;
41689;SDS011;27372;42.658;23.256;2023-09-19T06:23:49;11.93;;;8.32;;
41689;SDS011;27372;42.658;23.256;2023-09-19T06:26:15;14.20;;;8.07;;
41689;SDS011;27372;42.658;23.256;2023-09-19T06:28:40;13.98;;;8.52;;
41689;SDS011;27372;42.658;23.256;2023-09-19T06:31:07;14.95;;;9.15;;
41689;SDS011;27372;42.658;23.256;2023-09-19T06:33:35;14.23;;;9.32;;
41689;SDS011;27372;42.658;23.256;2023-09-19T06:36:07;17.88;;;9.70;;
41689;SDS011;27372;42.658;23.256;2023-09-19T06:38:33;11.40;;;8.55;;
41689;SDS011;27372;42.658;23.256;2023-09-19T06:41:02;11.95;;;8.52;;
41689;SDS011;27372;42.658;23.256;2023-09-19T06:43:32;19.10;;;8.40;;
41689;SDS011;27372;42.658;23.256;2023-09-19T06:45:59;16.13;;;9.00;;
41689;SDS011;27372;42.658;23.256;2023-09-19T06:48:25;18.05;;;8.55;;
41689;SDS011;27372;42.658;23.256;2023-09-19T06:50:52;11.07;;;7.00;;
41689;SDS011;27372;42.658;23.256;2023-09-19T06:53:20;12.45;;;7.20;;
41689;SDS011;27372;42.658;23.256;2023-09-19T06:55:45;11.85;;;6.72;;
41689;SDS011;27372;42.658;23.256;2023-09-19T06:58:12;15.00;;;7.38;;
41689;SDS011;27372;42.658;23.256;2023-09-19T07:00:38;12.70;;;7.35;;
41689;SDS011;27372;42.658;23.256;2023-09-19T07:03:04;13.15;;;6.90;;
41689;SDS011;27372;42.658;23.256;2023-09-19T07:05:33;12.13;;;7.15;;
41689;SDS011;27372;42.658;23.256;2023-09-19T07:08:02;12.57;;;6.97;;
41689;SDS011;27372;42.658;23.256;2023-09-19T07:10:28;10.95;;;7.50;;
41689;SDS011;27372;42.658;23.256;2023-09-19T07:12:58;15.63;;;7.57;;
41689;SDS011;27372;42.658;23.256;2023-09-19T07:15:24;14.95;;;7.43;;
41689;SDS011;27372;42.658;23.256;2023-09-19T07:17:51;14.75;;;7.85;;
41689;SDS011;27372;42.658;23.256;2023-09-19T07:20:18;12.88;;;7.25;;
41689;SDS011;27372;42.658;23.256;2023-09-19T07:22:44;17.65;;;7.32;;
41689;SDS011;27372;42.658;23.256;2023-09-19T07:25:10;12.98;;;7.20;;
41689;SDS011;27372;42.658;23.256;2023-09-19T07:27:35;15.00;;;7.25;;
41689;SDS011;27372;42.658;23.256;2023-09-19T07:30:00;10.27;;;6.50;;
41689;SDS011;27372;42.658;23.256;2023-09-19T07:32:26;12.15;;;7.10;;
41689;SDS011;27372;42.658;23.256;2023-09-19T07:34:51;17.92;;;7.53;;
41689;SDS011;27372;42.658;23.256;2023-09-19T07:37:17;17.75;;;7.47;;
41689;SDS011;27372;42.658;23.256;2023-09-19T07:39:43;14.48;;;7.03;;
41689;SDS011;27372;42.658;23.256;2023-09-19T07:42:09;18.15;;;7.20;;
41689;SDS011;27372;42.658;23.256;2023-09-19T07:44:36;11.38;;;7.20;;
41689;SDS011;27372;42.658;23.256;2023-09-19T07:47:02;11.20;;;7.47;;
41689;SDS011;27372;42.658;23.256;2023-09-19T07:49:28;12.43;;;6.82;;
41689;SDS011;27372;42.658;23.256;2023-09-19T07:51:54;15.50;;;7.60;;
41689;SDS011;27372;42.658;23.256;2023-09-19T07:54:19;16.40;;;7.50;;
41689;SDS011;27372;42.658;23.256;2023-09-19T07:56:45;10.63;;;7.10;;
41689;SDS011;27372;42.658;23.256;2023-09-19T07:59:11;10.32;;;7.30;;
41689;SDS011;27372;42.658;23.256;2023-09-19T08:01:37;15.18;;;7.82;;
41689;SDS011;27372;42.658;23.256;2023-09-19T08:06:31;14.80;;;7.70;;
41689;SDS011;27372;42.658;23.256;2023-09-19T08:08:56;17.63;;;8.20;;
41689;SDS011;27372;42.658;23.256;2023-09-19T08:11:22;14.43;;;7.63;;
41689;SDS011;27372;42.658;23.256;2023-09-19T08:13:49;12.13;;;7.38;;
41689;SDS011;27372;42.658;23.256;2023-09-19T08:16:15;16.95;;;8.25;;
41689;SDS011;27372;42.658;23.256;2023-09-19T08:18:42;13.55;;;7.90;;
41689;SDS011;27372;42.658;23.256;2023-09-19T08:21:12;16.90;;;7.97;;
41689;SDS011;27372;42.658;23.256;2023-09-19T08:23:38;14.50;;;8.13;;
41689;SDS011;27372;42.658;23.256;2023-09-19T08:26:07;14.77;;;7.70;;
41689;SDS011;27372;42.658;23.256;2023-09-19T08:28:35;16.15;;;8.38;;
41689;SDS011;27372;42.658;23.256;2023-09-19T08:33:29;15.30;;;7.10;;
41689;SDS011;27372;42.658;23.256;2023-09-19T08:35:55;22.55;;;8.13;;
41689;SDS011;27372;42.658;23.256;2023-09-19T08:38:21;14.98;;;7.57;;
41689;SDS011;27372;42.658;23.256;2023-09-19T08:40:46;17.17;;;7.07;;
41689;SDS011;27372;42.658;23.256;2023-09-19T08:43:11;13.63;;;7.05;;
41689;SDS011;27372;42.658;23.256;2023-09-19T08:45:37;12.15;;;7.45;;
41689;SDS011;27372;42.658;23.256;2023-09-19T08:48:24;13.55;;;7.10;;
41689;SDS011;27372;42.658;23.256;2023-09-19T08:50:56;16.55;;;7.53;;
41689;SDS011;27372;42.658;23.256;2023-09-19T08:55:56;12.68;;;7.15;;
41689;SDS011;27372;42.658;23.256;2023-09-19T08:58:23;18.65;;;7.25;;
41689;SDS011;27372;42.658;23.256;2023-09-19T09:00:54;15.23;;;7.25;;
41689;SDS011;27372;42.658;23.256;2023-09-19T09:03:21;15.10;;;7.55;;
41689;SDS011;27372;42.658;23.256;2023-09-19T09:05:48;13.13;;;6.57;;
41689;SDS011;27372;42.658;23.256;2023-09-19T09:08:15;12.35;;;6.70;;
41689;SDS011;27372;42.658;23.256;2023-09-19T09:10:44;21.45;;;6.82;;
41689;SDS011;27372;42.658;23.256;2023-09-19T09:13:09;23.00;;;7.40;;
41689;SDS011;27372;42.658;23.256;2023-09-19T09:15:38;18.48;;;6.70;;
41689;SDS011;27372;42.658;23.256;2023-09-19T09:18:03;16.90;;;6.95;;
41689;SDS011;27372;42.658;23.256;2023-09-19T09:20:30;15.13;;;6.43;;
41689;SDS011;27372;42.658;23.256;2023-09-19T09:22:56;9.20;;;6.28;;
41689;SDS011;27372;42.658;23.256;2023-09-19T09:25:50;17.05;;;6.63;;
41689;SDS011;27372;42.658;23.256;2023-09-19T09:28:21;9.15;;;5.85;;
41689;SDS011;27372;42.658;23.256;2023-09-19T09:30:48;14.45;;;6.57;;
41689;SDS011;27372;42.658;23.256;2023-09-19T09:33:15;17.00;;;7.18;;
41689;SDS011;27372;42.658;23.256;2023-09-19T09:35:59;16.00;;;6.85;;
41689;SDS011;27372;42.658;23.256;2023-09-19T09:38:28;13.50;;;6.35;;
41689;SDS011;27372;42.658;23.256;2023-09-19T09:40:58;11.95;;;6.18;;
41689;SDS011;27372;42.658;23.256;2023-09-19T09:46:07;10.23;;;6.22;;
41689;SDS011;27372;42.658;23.256;2023-09-19T09:51:42;11.27;;;6.47;;
41689;SDS011;27372;42.658;23.256;2023-09-19T09:54:13;15.57;;;6.22;;
41689;SDS011;27372;42.658;23.256;2023-09-19T09:56:55;10.18;;;5.97;;
41689;SDS011;27372;42.658;23.256;2023-09-19T10:02:19;10.23;;;6.18;;
41689;SDS011;27372;42.658;23.256;2023-09-19T10:04:50;12.98;;;5.82;;
41689;SDS011;27372;42.658;23.256;2023-09-19T10:07:26;13.00;;;5.72;;
41689;SDS011;27372;42.658;23.256;2023-09-19T10:10:03;13.63;;;6.03;;
41689;SDS011;27372;42.658;23.256;2023-09-19T10:12:42;9.60;;;5.80;;
41689;SDS011;27372;42.658;23.256;2023-09-19T10:15:11;33.30;;;7.35;;
41689;SDS011;27372;42.658;23.256;2023-09-19T10:17:40;12.48;;;6.55;;
41689;SDS011;27372;42.658;23.256;2023-09-19T10:20:09;14.45;;;5.75;;
41689;SDS011;27372;42.658;23.256;2023-09-19T10:25:24;13.77;;;6.50;;
41689;SDS011;27372;42.658;23.256;2023-09-19T10:27:51;20.05;;;6.57;;
41689;SDS011;27372;42.658;23.256;2023-09-19T10:30:20;10.75;;;6.03;;
41689;SDS011;27372;42.658;23.256;2023-09-19T10:32:51;12.68;;;6.22;;
41689;SDS011;27372;42.658;23.256;2023-09-19T10:35:24;17.45;;;6.35;;
41689;SDS011;27372;42.658;23.256;2023-09-19T10:37:50;11.65;;;6.20;;
41689;SDS011;27372;42.658;23.256;2023-09-19T10:40:19;12.15;;;6.25;;
41689;SDS011;27372;42.658;23.256;2023-09-19T10:42:51;14.70;;;6.45;;
41689;SDS011;27372;42.658;23.256;2023-09-19T10:45:18;15.77;;;6.05;;
41689;SDS011;27372;42.658;23.256;2023-09-19T10:47:45;12.77;;;5.78;;
41689;SDS011;27372;42.658;23.256;2023-09-19T10:50:19;10.60;;;5.90;;
41689;SDS011;27372;42.658;23.256;2023-09-19T10:52:46;16.90;;;6.00;;
41689;SDS011;27372;42.658;23.256;2023-09-19T10:55:18;9.18;;;6.30;;
41689;SDS011;27372;42.658;23.256;2023-09-19T10:57:47;13.02;;;5.88;;
41689;SDS011;27372;42.658;23.256;2023-09-19T11:00:13;8.90;;;5.95;;
41689;SDS011;27372;42.658;23.256;2023-09-19T11:06:04;15.15;;;6.22;;
41689;SDS011;27372;42.658;23.256;2023-09-19T11:30:51;17.63;;;6.28;;
41689;SDS011;27372;42.658;23.256;2023-09-19T11:46:51;12.57;;;5.82;;
41689;SDS011;27372;42.658;23.256;2023-09-19T11:49:28;14.30;;;5.95;;
41689;SDS011;27372;42.658;23.256;2023-09-19T11:52:01;14.40;;;6.18;;
41689;SDS011;27372;42.658;23.256;2023-09-19T11:54:31;15.65;;;6.25;;
41689;SDS011;27372;42.658;23.256;2023-09-19T11:56:57;10.70;;;5.28;;
41689;SDS011;27372;42.658;23.256;2023-09-19T11:59:25;12.73;;;5.30;;
41689;SDS011;27372;42.658;23.256;2023-09-19T12:01:59;8.98;;;5.80;;
41689;SDS011;27372;42.658;23.256;2023-09-19T12:04:38;14.05;;;5.40;;
41689;SDS011;27372;42.658;23.256;2023-09-19T12:07:07;11.07;;;5.38;;
41689;SDS011;27372;42.658;23.256;2023-09-19T12:09:40;11.88;;;5.63;;
41689;SDS011;27372;42.658;23.256;2023-09-19T12:12:08;15.23;;;5.88;;
41689;SDS011;27372;42.658;23.256;2023-09-19T12:14:36;18.17;;;5.70;;
41689;SDS011;27372;42.658;23.256;2023-09-19T12:17:04;11.63;;;5.00;;
41689;SDS011;27372;42.658;23.256;2023-09-19T12:19:30;10.95;;;5.55;;
41689;SDS011;27372;42.658;23.256;2023-09-19T12:21:56;14.98;;;4.90;;
41689;SDS011;27372;42.658;23.256;2023-09-19T12:24:23;14.48;;;5.00;;
41689;SDS011;27372;42.658;23.256;2023-09-19T12:26:54;12.77;;;4.80;;
41689;SDS011;27372;42.658;23.256;2023-09-19T12:29:26;14.90;;;4.97;;
41689;SDS011;27372;42.658;23.256;2023-09-19T12:31:53;8.68;;;4.60;;
41689;SDS011;27372;42.658;23.256;2023-09-19T12:34:31;12.02;;;4.65;;
41689;SDS011;27372;42.658;23.256;2023-09-19T12:37:06;11.68;;;4.82;;
41689;SDS011;27372;42.658;23.256;2023-09-19T12:39:37;14.30;;;5.05;;
41689;SDS011;27372;42.658;23.256;2023-09-19T12:42:13;6.75;;;4.35;;
41689;SDS011;27372;42.658;23.256;2023-09-19T12:44:41;16.52;;;4.70;;
41689;SDS011;27372;42.658;23.256;2023-09-19T12:47:16;12.95;;;4.70;;
41689;SDS011;27372;42.658;23.256;2023-09-19T12:52:49;10.95;;;4.22;;
41689;SDS011;27372;42.658;23.256;2023-09-19T12:55:28;14.63;;;4.82;;
41689;SDS011;27372;42.658;23.256;2023-09-19T13:00:43;12.30;;;4.63;;
41689;SDS011;27372;42.658;23.256;2023-09-19T13:03:24;20.30;;;4.90;;
41689;SDS011;27372;42.658;23.256;2023-09-19T13:11:08;14.77;;;4.10;;
41689;SDS011;27372;42.658;23.256;2023-09-19T13:13:39;10.75;;;4.32;;
41689;SDS011;27372;42.658;23.256;2023-09-19T13:16:13;11.43;;;4.15;;
41689;SDS011;27372;42.658;23.256;2023-09-19T13:18:55;8.15;;;4.28;;
41689;SDS011;27372;42.658;23.256;2023-09-19T13:21:28;8.35;;;4.03;;
41689;SDS011;27372;42.658;23.256;2023-09-19T13:24:17;13.40;;;4.25;;
41689;SDS011;27372;42.658;23.256;2023-09-19T13:26:50;7.20;;;3.97;;
41689;SDS011;27372;42.658;23.256;2023-09-19T13:29:16;11.25;;;4.47;;
41689;SDS011;27372;42.658;23.256;2023-09-19T13:31:49;8.27;;;4.05;;
41689;SDS011;27372;42.658;23.256;2023-09-19T13:34:18;10.23;;;4.25;;
41689;SDS011;27372;42.658;23.256;2023-09-19T13:36:44;8.63;;;3.85;;
41689;SDS011;27372;42.658;23.256;2023-09-19T13:39:11;13.30;;;4.18;;
41689;SDS011;27372;42.658;23.256;2023-09-19T13:41:40;7.28;;;3.92;;
41689;SDS011;27372;42.658;23.256;2023-09-19T13:44:07;7.93;;;4.25;;
41689;SDS011;27372;42.658;23.256;2023-09-19T13:46:33;9.27;;;4.10;;
41689;SDS011;27372;42.658;23.256;2023-09-19T13:49:00;11.27;;;4.07;;
41689;SDS011;27372;42.658;23.256;2023-09-19T13:53:55;10.65;;;3.90;;
41689;SDS011;27372;42.658;23.256;2023-09-19T13:56:20;9.70;;;4.20;;
41689;SDS011;27372;42.658;23.256;2023-09-19T13:58:45;8.82;;;4.30;;
41689;SDS011;27372;42.658;23.256;2023-09-19T14:01:11;37.75;;;5.72;;
41689;SDS011;27372;42.658;23.256;2023-09-19T14:03:39;18.85;;;4.93;;
41689;SDS011;27372;42.658;23.256;2023-09-19T14:06:05;9.60;;;4.32;;
41689;SDS011;27372;42.658;23.256;2023-09-19T14:08:31;11.48;;;4.10;;
41689;SDS011;27372;42.658;23.256;2023-09-19T14:10:59;9.57;;;4.47;;
41689;SDS011;27372;42.658;23.256;2023-09-19T14:13:24;8.68;;;4.05;;
41689;SDS011;27372;42.658;23.256;2023-09-19T14:15:50;10.60;;;4.07;;
41689;SDS011;27372;42.658;23.256;2023-09-19T14:18:16;8.73;;;4.25;;
41689;SDS011;27372;42.658;23.256;2023-09-19T14:20:41;14.55;;;4.28;;
41689;SDS011;27372;42.658;23.256;2023-09-19T14:23:07;27.42;;;4.60;;
41689;SDS011;27372;42.658;23.256;2023-09-19T14:25:36;9.68;;;4.05;;
41689;SDS011;27372;42.658;23.256;2023-09-19T14:28:03;10.18;;;4.15;;
41689;SDS011;27372;42.658;23.256;2023-09-19T14:30:29;8.75;;;3.92;;
41689;SDS011;27372;42.658;23.256;2023-09-19T14:32:56;12.35;;;3.83;;
41689;SDS011;27372;42.658;23.256;2023-09-19T14:35:23;12.35;;;4.15;;
41689;SDS011;27372;42.658;23.256;2023-09-19T14:37:48;9.27;;;3.85;;
41689;SDS011;27372;42.658;23.256;2023-09-19T14:40:14;8.52;;;3.75;;
41689;SDS011;27372;42.658;23.256;2023-09-19T14:42:43;7.03;;;3.83;;
41689;SDS011;27372;42.658;23.256;2023-09-19T14:45:10;15.10;;;4.18;;
41689;SDS011;27372;42.658;23.256;2023-09-19T14:47:36;9.27;;;4.28;;
41689;SDS011;27372;42.658;23.256;2023-09-19T14:50:02;14.38;;;4.22;;
41689;SDS011;27372;42.658;23.256;2023-09-19T14:52:32;9.15;;;4.55;;
41689;SDS011;27372;42.658;23.256;2023-09-19T14:54:58;13.43;;;4.85;;
41689;SDS011;27372;42.658;23.256;2023-09-19T14:57:24;14.77;;;5.97;;
41689;SDS011;27372;42.658;23.256;2023-09-19T14:59:51;29.23;;;6.03;;
41689;SDS011;27372;42.658;23.256;2023-09-19T15:02:16;10.82;;;4.60;;
41689;SDS011;27372;42.658;23.256;2023-09-19T15:04:42;15.50;;;5.45;;
41689;SDS011;27372;42.658;23.256;2023-09-19T15:07:12;25.08;;;5.60;;
41689;SDS011;27372;42.658;23.256;2023-09-19T15:09:40;13.10;;;5.00;;
41689;SDS011;27372;42.658;23.256;2023-09-19T15:12:06;14.90;;;4.80;;
41689;SDS011;27372;42.658;23.256;2023-09-19T15:14:32;10.20;;;4.30;;
41689;SDS011;27372;42.658;23.256;2023-09-19T15:16:57;11.73;;;4.97;;
41689;SDS011;27372;42.658;23.256;2023-09-19T15:19:22;11.02;;;4.50;;
41689;SDS011;27372;42.658;23.256;2023-09-19T15:21:48;6.78;;;4.70;;
41689;SDS011;27372;42.658;23.256;2023-09-19T15:24:14;8.02;;;4.63;;
41689;SDS011;27372;42.658;23.256;2023-09-19T15:26:39;7.38;;;4.20;;
41689;SDS011;27372;42.658;23.256;2023-09-19T15:29:05;10.95;;;4.45;;
41689;SDS011;27372;42.658;23.256;2023-09-19T15:31:32;10.02;;;4.80;;
41689;SDS011;27372;42.658;23.256;2023-09-19T15:33:58;7.22;;;4.50;;
41689;SDS011;27372;42.658;23.256;2023-09-19T15:36:23;7.95;;;4.85;;
41689;SDS011;27372;42.658;23.256;2023-09-19T15:38:59;9.95;;;4.50;;
41689;SDS011;27372;42.658;23.256;2023-09-19T15:43:59;10.73;;;4.53;;
41689;SDS011;27372;42.658;23.256;2023-09-19T15:46:28;11.07;;;4.88;;
41689;SDS011;27372;42.658;23.256;2023-09-19T15:48:59;6.60;;;4.55;;
41689;SDS011;27372;42.658;23.256;2023-09-19T15:51:25;7.35;;;4.80;;
41689;SDS011;27372;42.658;23.256;2023-09-19T15:53:52;11.38;;;5.10;;
41689;SDS011;27372;42.658;23.256;2023-09-19T15:56:19;6.55;;;4.68;;
41689;SDS011;27372;42.658;23.256;2023-09-19T15:58:48;6.97;;;5.03;;
41689;SDS011;27372;42.658;23.256;2023-09-19T16:01:21;14.05;;;5.13;;